Time;durP1;ratioP1;P1;durP2;ratioP2;P2;SDS_P1;SDS_P2;PMS_P1;PMS_P2;Temp;Humidity;BMP_temperature;BMP_pressure;BME280_temperature;BME280_humidity;BME280_pressure;Samples;Min_cycle;Max_cycle;Signal;HPM_P1;HPM_P2
2022/09/09 00:01:19;;;;;;;6.93;1.93;;;17.60;99.90;;;;;;5054337;28;20983;-68
2022/09/09 00:03:57;;;;;;;34.73;3.37;;;17.60;99.90;;;;;;5058582;28;21018;-65
2022/09/09 00:06:30;;;;;;;13.87;2.87;;;17.50;99.90;;;;;;5050559;28;20471;-67
2022/09/09 00:09:03;;;;;;;19.73;3.20;;;17.30;99.90;;;;;;5067010;28;20490;-66
2022/09/09 00:11:41;;;;;;;15.93;4.03;;;17.20;99.90;;;;;;5049969;28;20525;-66
2022/09/09 00:14:16;;;;;;;20.13;3.30;;;17.20;99.90;;;;;;5053728;28;20568;-65
2022/09/09 00:16:47;;;;;;;17.27;2.50;;;17.20;99.90;;;;;;5055848;28;20479;-62
2022/09/09 00:19:23;;;;;;;10.20;2.60;;;17.20;99.90;;;;;;5052827;28;20933;-65
2022/09/09 00:21:57;;;;;;;11.00;2.70;;;17.20;99.90;;;;;;5052711;28;20476;-65
2022/09/09 00:24:28;;;;;;;19.07;4.37;;;;;;;;;;5057224;28;20480;-65
2022/09/09 00:26:58;;;;;;;18.37;2.70;;;;;;;;;;5051730;28;20974;-63
2022/09/09 00:29:35;;;;;;;15.23;4.17;;;17.20;99.90;;;;;;5054996;28;20495;-65
2022/09/09 00:32:14;;;;;;;25.93;3.13;;;17.20;99.90;;;;;;5058593;28;20485;-64
2022/09/09 00:34:47;;;;;;;10.17;2.63;;;17.20;99.90;;;;;;5049172;28;20480;-64
2022/09/09 00:37:15;;;;;;;15.27;2.70;;;17.30;99.90;;;;;;5067184;28;20486;-64
2022/09/09 00:39:45;;;;;;;8.90;2.30;;;17.20;99.90;;;;;;5039360;28;21050;-62
2022/09/09 00:42:16;;;;;;;7.87;2.50;;;17.20;99.90;;;;;;5040770;28;20479;-62
2022/09/09 00:44:54;;;;;;;18.67;2.53;;;17.30;99.90;;;;;;5050858;28;20481;-68
2022/09/09 00:47:40;;;;;;;15.40;2.53;;;17.30;99.90;;;;;;5042947;28;20514;-66
2022/09/09 00:50:18;;;;;;;11.97;2.50;;;17.20;99.90;;;;;;5039223;28;20890;-68
2022/09/09 00:52:48;;;;;;;18.07;2.70;;;;;;;;;;5062670;28;20478;-68
2022/09/09 00:55:18;;;;;;;11.93;2.13;;;;;;;;;;5045593;28;20479;-67
2022/09/09 00:57:46;;;;;;;7.40;1.73;;;17.20;99.90;;;;;;5048495;28;21010;-69
2022/09/09 01:00:24;;;;;;;15.57;2.97;;;17.30;99.90;;;;;;5065744;28;21007;-65
2022/09/09 01:03:08;;;;;;;10.20;3.00;;;17.30;99.90;;;;;;5038637;28;20478;-64
2022/09/09 01:05:37;;;;;;;20.37;3.43;;;;;;;;;;5051262;28;20471;-64
2022/09/09 01:08:08;;;;;;;17.63;2.97;;;;;;;;;;5053881;28;20479;-66
2022/09/09 01:10:47;;;;;;;10.33;2.90;;;17.20;99.90;;;;;;5054336;28;20486;-64
2022/09/09 01:13:18;;;;;;;9.57;3.13;;;;;;;;;;5042539;28;20476;-64
2022/09/09 01:15:48;;;;;;;12.53;1.90;;;17.20;99.90;;;;;;5052004;28;20910;-67
2022/09/09 01:18:19;;;;;;;10.83;1.73;;;17.30;99.90;;;;;;5054978;28;20490;-67
2022/09/09 01:20:51;;;;;;;10.60;2.80;;;;;;;;;;5051743;28;20845;-63
2022/09/09 01:23:28;;;;;;;18.13;3.20;;;;;;;;;;5053671;28;20479;-68
2022/09/09 01:26:18;;;;;;;9.17;2.73;;;;;;;;;;5036737;28;20487;-64
2022/09/09 01:28:48;;;;;;;6.73;1.60;;;17.10;99.90;;;;;;5051120;28;20479;-63
2022/09/09 01:31:17;;;;;;;8.57;1.97;;;;;;;;;;5050699;28;21243;-64
2022/09/09 01:33:44;;;;;;;6.87;2.33;;;16.90;99.90;;;;;;5039132;28;20495;-66
2022/09/09 01:36:13;;;;;;;13.10;2.10;;;16.90;99.90;;;;;;5055758;28;20814;-67
2022/09/09 01:38:41;;;;;;;22.03;2.80;;;;;;;;;;5052467;28;20475;-66
2022/09/09 01:41:08;;;;;;;7.13;1.50;;;;;;;;;;5072322;28;20502;-66
2022/09/09 01:43:36;;;;;;;18.33;3.23;;;;;;;;;;5062726;28;20482;-65
2022/09/09 01:49:25;;;;;;;9.00;2.23;;;17.00;99.90;;;;;;5044337;28;20489;-64
2022/09/09 01:51:54;;;;;;;11.57;1.80;;;16.90;99.90;;;;;;5055818;28;20491;-66
2022/09/09 01:54:22;;;;;;;9.20;1.80;;;16.90;99.90;;;;;;5053940;28;20475;-65
2022/09/09 01:56:57;;;;;;;8.07;1.63;;;;;;;;;;5045225;28;20474;-71
2022/09/09 01:59:38;;;;;;;19.43;2.87;;;;;;;;;;5063802;28;20485;-71
2022/09/09 02:02:11;;;;;;;9.23;2.00;;;17.00;99.90;;;;;;5071531;28;20796;-67
2022/09/09 02:04:41;;;;;;;16.30;2.00;;;16.90;99.90;;;;;;5044826;28;20499;-65
2022/09/09 02:07:20;;;;;;;14.97;2.57;;;17.00;99.90;;;;;;5074909;28;20478;-65
2022/09/09 02:09:53;;;;;;;21.60;2.90;;;16.90;99.90;;;;;;5043619;28;21010;-63
2022/09/09 02:12:23;;;;;;;6.53;2.17;;;17.00;99.90;;;;;;5061665;28;20471;-70
2022/09/09 02:14:54;;;;;;;14.37;2.50;;;;;;;;;;5050671;28;20471;-68
2022/09/09 02:17:26;;;;;;;5.20;2.50;;;17.00;99.90;;;;;;5066185;28;20475;-72
2022/09/09 02:19:58;;;;;;;18.87;3.50;;;17.00;99.90;;;;;;5055417;28;20498;-70
2022/09/09 02:22:28;;;;;;;10.07;3.00;;;17.10;99.90;;;;;;5058783;28;20812;-66
2022/09/09 02:24:59;;;;;;;9.23;1.77;;;17.20;99.90;;;;;;5065925;28;20503;-66
2022/09/09 02:27:26;;;;;;;15.87;3.27;;;;;;;;;;5068955;28;20686;-70
2022/09/09 02:29:57;;;;;;;13.23;1.90;;;17.20;99.90;;;;;;5061846;28;20479;-65
2022/09/09 02:32:25;;;;;;;8.83;3.10;;;17.10;99.90;;;;;;5054714;28;20471;-64
2022/09/09 02:34:54;;;;;;;12.83;2.30;;;;;;;;;;5054464;28;20487;-70
2022/09/09 02:37:28;;;;;;;12.37;3.10;;;16.90;99.90;;;;;;5061755;28;20487;-66
2022/09/09 02:39:55;;;;;;;13.43;2.50;;;16.80;99.90;;;;;;5054540;28;20518;-66
2022/09/09 02:42:22;;;;;;;20.30;2.40;;;16.80;99.90;;;;;;5054414;28;20494;-68
2022/09/09 02:44:48;;;;;;;9.03;1.70;;;16.70;99.90;;;;;;5056471;28;20483;-69
2022/09/09 02:47:21;;;;;;;9.53;1.80;;;;;;;;;;5073328;28;20493;-64
2022/09/09 02:49:59;;;;;;;18.40;2.27;;;16.60;99.90;;;;;;5075476;28;20609;-63
2022/09/09 02:52:37;;;;;;;5.80;2.47;;;16.60;99.90;;;;;;5058324;28;20483;-68
2022/09/09 02:55:08;;;;;;;14.03;2.03;;;;;;;;;;5054121;28;20633;-66
2022/09/09 02:57:36;;;;;;;9.80;2.37;;;16.60;99.90;;;;;;5049459;28;20991;-64
2022/09/09 03:00:03;;;;;;;11.97;2.00;;;16.60;99.90;;;;;;5070529;28;20493;-65
2022/09/09 03:02:31;;;;;;;11.67;2.87;;;16.60;99.90;;;;;;5071990;28;21026;-64
2022/09/09 03:04:58;;;;;;;3.50;1.80;;;16.70;99.90;;;;;;5071330;28;20477;-66
2022/09/09 03:07:25;;;;;;;6.23;1.60;;;16.80;99.90;;;;;;5052614;28;20755;-63
2022/09/09 03:09:54;;;;;;;7.50;1.90;;;16.80;99.90;;;;;;5046822;28;20487;-67
2022/09/09 03:12:21;;;;;;;8.70;1.90;;;16.90;99.90;;;;;;5035442;28;20563;-65
2022/09/09 03:14:48;;;;;;;11.80;2.00;;;;;;;;;;5035759;28;20472;-67
2022/09/09 03:17:15;;;;;;;11.37;2.40;;;16.70;99.90;;;;;;5051116;28;20481;-67
2022/09/09 03:19:43;;;;;;;11.27;1.83;;;16.70;99.90;;;;;;5032959;28;20484;-62
2022/09/09 03:22:11;;;;;;;14.73;2.67;;;;;;;;;;5036939;28;20476;-68
2022/09/09 03:24:38;;;;;;;4.00;2.73;;;;;;;;;;5034550;28;20472;-68
2022/09/09 03:27:06;;;;;;;14.53;3.57;;;16.70;99.90;;;;;;5035486;28;20479;-69
2022/09/09 03:29:32;;;;;;;19.00;3.47;;;16.60;99.90;;;;;;5034442;28;20487;-64
2022/09/09 03:31:59;;;;;;;9.23;2.43;;;16.00;99.90;;;;;;5033964;28;20490;-65
2022/09/09 03:34:26;;;;;;;20.93;4.00;;;16.60;99.90;;;;;;5039788;28;21237;-65
2022/09/09 03:36:55;;;;;;;41.07;3.60;;;16.60;99.90;;;;;;5035921;28;20567;-65
2022/09/09 03:39:22;;;;;;;9.63;3.07;;;16.50;99.90;;;;;;5034571;28;20479;-64
2022/09/09 03:41:49;;;;;;;7.43;1.90;;;16.40;99.90;;;;;;5036196;28;20852;-64
2022/09/09 03:44:15;;;;;;;18.37;2.33;;;16.40;99.90;;;;;;5034136;28;20485;-65
2022/09/09 03:46:42;;;;;;;6.50;1.57;;;16.50;99.90;;;;;;5035417;28;20512;-69
2022/09/09 03:49:10;;;;;;;8.43;1.67;;;16.50;99.90;;;;;;5028897;28;20997;-66
2022/09/09 03:51:38;;;;;;;20.43;3.10;;;16.40;99.90;;;;;;5034546;28;20597;-72
2022/09/09 03:54:08;;;;;;;17.27;2.80;;;16.40;99.90;;;;;;5035126;28;20488;-68
2022/09/09 03:56:35;;;;;;;12.47;3.20;;;16.40;99.90;;;;;;5036516;28;20542;-64
2022/09/09 03:59:01;;;;;;;18.93;3.13;;;16.40;99.90;;;;;;5030158;28;20514;-66
2022/09/09 04:01:28;;;;;;;7.33;2.90;;;16.40;99.90;;;;;;5029532;28;20691;-64
2022/09/09 04:03:57;;;;;;;9.67;2.27;;;16.40;99.90;;;;;;5037223;28;20480;-66
2022/09/09 04:06:25;;;;;;;15.97;2.70;;;16.40;99.90;;;;;;5037957;28;20476;-62
2022/09/09 04:08:52;;;;;;;9.40;2.33;;;16.40;99.90;;;;;;5038291;28;20568;-66
2022/09/09 04:11:20;;;;;;;8.90;2.50;;;16.40;99.90;;;;;;5054239;28;20488;-69
2022/09/09 04:13:47;;;;;;;36.53;3.13;;;16.40;99.90;;;;;;5051923;28;20618;-66
2022/09/09 04:16:14;;;;;;;6.70;2.83;;;;;;;;;;5053467;28;20902;-67
2022/09/09 04:18:41;;;;;;;11.07;2.20;;;16.30;99.90;;;;;;5032307;28;20870;-65
2022/09/09 04:21:10;;;;;;;17.17;2.17;;;16.30;99.90;;;;;;5036509;28;20489;-69
2022/09/09 04:23:37;;;;;;;14.43;4.70;;;;;;;;;;5043654;28;20484;-63
2022/09/09 04:26:04;;;;;;;16.83;3.23;;;;;;;;;;5035984;28;20511;-67
2022/09/09 04:28:34;;;;;;;53.33;13.40;;;;;;;;;;5037906;28;20563;-63
2022/09/09 04:31:06;;;;;;;12.80;4.00;;;16.30;99.90;;;;;;5047228;28;20989;-63
2022/09/09 04:33:33;;;;;;;28.00;5.00;;;16.30;99.90;;;;;;5031722;28;20579;-68
2022/09/09 04:35:59;;;;;;;7.30;2.17;;;16.20;99.90;;;;;;5041951;28;20837;-71
2022/09/09 04:38:26;;;;;;;15.13;3.37;;;16.30;99.90;;;;;;5032532;28;20481;-64
2022/09/09 04:40:54;;;;;;;34.77;4.10;;;;;;;;;;5036252;28;20559;-66
2022/09/09 04:43:22;;;;;;;4.13;2.30;;;16.30;99.90;;;;;;5032674;28;20479;-69
2022/09/09 04:45:51;;;;;;;9.20;2.67;;;16.30;99.90;;;;;;5028303;28;21178;-65
2022/09/09 04:48:18;;;;;;;15.83;3.10;;;16.30;99.90;;;;;;5023342;28;20589;-68
2022/09/09 04:50:54;;;;;;;8.23;1.93;;;16.40;99.90;;;;;;5030348;28;20993;-65
2022/09/09 04:53:21;;;;;;;15.37;3.00;;;;;;;;;;5036350;28;20978;-63
2022/09/09 04:55:48;;;;;;;9.60;1.90;;;16.50;99.90;;;;;;5056570;28;20479;-68
2022/09/09 04:58:15;;;;;;;9.33;2.40;;;16.50;99.90;;;;;;5066728;28;21182;-68
2022/09/09 05:00:42;;;;;;;9.43;2.20;;;16.50;99.90;;;;;;5071961;28;20992;-65
2022/09/09 05:03:10;;;;;;;14.53;2.97;;;16.50;99.90;;;;;;5074012;28;20489;-68
2022/09/09 05:05:37;;;;;;;12.27;2.67;;;;;;;;;;5051583;28;21113;-70
2022/09/09 05:08:05;;;;;;;12.23;2.50;;;;;;;;;;5053452;28;21171;-65
2022/09/09 05:10:31;;;;;;;10.33;3.07;;;16.60;99.90;;;;;;5056882;28;20486;-69
2022/09/09 05:12:58;;;;;;;9.10;2.40;;;16.60;99.90;;;;;;5052110;28;20471;-69
2022/09/09 05:15:25;;;;;;;8.33;2.80;;;;;;;;;;5066470;28;21016;-63
2022/09/09 05:17:53;;;;;;;8.33;2.03;;;16.70;99.90;;;;;;5072731;28;20687;-69
2022/09/09 05:20:21;;;;;;;8.20;2.07;;;16.70;99.90;;;;;;5072486;28;20647;-68
2022/09/09 05:22:48;;;;;;;13.57;1.90;;;;;;;;;;5055081;28;20487;-69
2022/09/09 05:25:15;;;;;;;15.30;4.10;;;16.70;99.90;;;;;;5055742;28;20456;-71
2022/09/09 05:27:42;;;;;;;8.60;1.70;;;16.80;99.90;;;;;;5059312;28;22144;-61
2022/09/09 05:30:10;;;;;;;15.73;2.43;;;16.80;99.90;;;;;;5070151;28;20486;-65
2022/09/09 05:32:37;;;;;;;8.60;2.50;;;;;;;;;;5053137;28;20480;-65
2022/09/09 05:35:04;;;;;;;11.20;1.90;;;16.80;99.90;;;;;;5039704;28;20475;-64
2022/09/09 05:37:33;;;;;;;8.00;2.90;;;16.90;99.90;;;;;;5050702;28;20495;-67
2022/09/09 05:40:00;;;;;;;8.70;2.43;;;16.80;99.90;;;;;;5053342;28;20487;-66
2022/09/09 05:42:31;;;;;;;23.63;3.17;;;16.90;99.90;;;;;;5057918;28;21073;-65
2022/09/09 05:44:58;;;;;;;10.40;1.87;;;17.10;99.90;;;;;;5043350;28;20680;-62
2022/09/09 05:47:27;;;;;;;11.93;2.47;;;17.00;99.90;;;;;;5046765;28;20502;-66
2022/09/09 05:49:54;;;;;;;11.37;2.50;;;;;;;;;;5017890;28;20464;-67
2022/09/09 05:52:22;;;;;;;16.47;2.20;;;17.10;99.90;;;;;;5052741;28;20570;-66
2022/09/09 05:54:50;;;;;;;9.13;2.20;;;17.20;99.90;;;;;;5044410;28;20484;-63
2022/09/09 05:57:19;;;;;;;12.07;1.90;;;;;;;;;;5032602;28;20511;-68
2022/09/09 05:59:46;;;;;;;14.30;1.83;;;17.20;99.90;;;;;;5034259;28;20591;-64
2022/09/09 06:02:13;;;;;;;7.70;2.30;;;17.20;99.90;;;;;;5038054;28;20502;-65
2022/09/09 06:04:40;;;;;;;25.17;3.03;;;17.20;99.90;;;;;;5036000;28;20496;-63
2022/09/09 06:07:07;;;;;;;15.77;2.43;;;;;;;;;;5031541;28;20765;-64
2022/09/09 06:09:34;;;;;;;14.27;3.27;;;;;;;;;;5042288;28;20498;-64
2022/09/09 06:12:02;;;;;;;12.73;2.63;;;17.20;99.90;;;;;;5040813;28;20473;-65
2022/09/09 06:14:29;;;;;;;16.33;3.60;;;17.20;99.90;;;;;;5039222;28;20479;-65
2022/09/09 06:16:56;;;;;;;7.40;2.20;;;17.20;99.90;;;;;;5057257;28;20471;-64
2022/09/09 06:19:24;;;;;;;12.47;2.70;;;17.20;99.90;;;;;;5018816;28;20483;-66
2022/09/09 06:21:51;;;;;;;19.73;2.67;;;;;;;;;;5029736;28;20934;-64
2022/09/09 06:24:19;;;;;;;16.57;2.97;;;;;;;;;;5036640;28;20819;-63
2022/09/09 06:26:46;;;;;;;13.40;2.37;;;17.40;99.90;;;;;;5024326;28;21135;-67
2022/09/09 06:29:14;;;;;;;19.20;2.77;;;17.30;99.90;;;;;;5026942;28;20994;-64
2022/09/09 06:31:41;;;;;;;10.07;2.33;;;;;;;;;;5038039;28;20483;-65
2022/09/09 06:34:09;;;;;;;11.53;4.17;;;17.50;99.90;;;;;;5049782;28;20479;-64
2022/09/09 06:36:37;;;;;;;20.87;3.23;;;;;;;;;;5041687;28;20480;-64
2022/09/09 06:39:04;;;;;;;12.73;3.10;;;17.30;99.90;;;;;;5036184;28;20885;-65
2022/09/09 06:41:32;;;;;;;14.83;4.20;;;;;;;;;;5032173;28;20840;-64
2022/09/09 06:43:59;;;;;;;10.10;2.30;;;17.40;99.90;;;;;;5051966;28;20541;-66
2022/09/09 06:46:30;;;;;;;14.27;3.87;;;;;;;;;;5040013;28;20480;-64
2022/09/09 06:48:58;;;;;;;17.47;2.90;;;;;;;;;;5058526;28;20517;-62
2022/09/09 06:51:27;;;;;;;11.20;3.33;;;17.50;99.90;;;;;;5054843;28;20490;-64
2022/09/09 06:53:55;;;;;;;6.17;2.70;;;17.40;99.90;;;;;;5055927;28;20480;-63
2022/09/09 06:56:23;;;;;;;15.90;3.47;;;17.40;99.90;;;;;;5055205;28;20475;-62
2022/09/09 06:58:51;;;;;;;19.80;3.00;;;;;;;;;;5049238;28;20511;-66
2022/09/09 07:01:21;;;;;;;10.30;2.87;;;17.40;99.90;;;;;;5074246;28;20707;-65
2022/09/09 07:03:51;;;;;;;16.63;2.50;;;17.50;99.90;;;;;;5070297;28;20514;-67
2022/09/09 07:06:20;;;;;;;9.63;3.40;;;17.50;99.90;;;;;;5063571;28;20493;-66
2022/09/09 07:08:51;;;;;;;13.07;2.33;;;;;;;;;;5070667;28;21307;-63
2022/09/09 07:11:17;;;;;;;8.50;2.90;;;17.60;99.90;;;;;;5074861;28;20565;-67
2022/09/09 07:13:44;;;;;;;10.10;2.30;;;17.70;99.90;;;;;;5067675;28;20483;-64
2022/09/09 07:16:13;;;;;;;7.03;2.20;;;17.60;99.90;;;;;;5069647;28;20673;-64
2022/09/09 07:18:40;;;;;;;19.00;3.13;;;17.60;99.90;;;;;;5052464;28;20511;-68
2022/09/09 07:21:11;;;;;;;21.63;3.97;;;17.80;99.90;;;;;;5075509;28;20474;-64
2022/09/09 07:23:39;;;;;;;32.37;4.70;;;17.80;99.90;;;;;;5070436;28;20535;-69
2022/09/09 07:26:09;;;;;;;9.83;2.93;;;17.80;99.90;;;;;;5054526;28;20574;-67
2022/09/09 07:28:36;;;;;;;14.10;4.13;;;17.90;99.90;;;;;;5072006;28;20479;-67
2022/09/09 07:31:04;;;;;;;25.27;3.17;;;17.90;99.90;;;;;;5058271;28;20475;-69
2022/09/09 07:33:31;;;;;;;26.57;4.80;;;;;;;;;;5028080;28;20470;-65
2022/09/09 07:36:04;;;;;;;8.60;2.20;;;;;;;;;;5053124;28;20475;-68
2022/09/09 07:38:32;;;;;;;25.00;3.40;;;17.90;99.90;;;;;;5051719;28;20472;-64
2022/09/09 07:41:04;;;;;;;5.73;2.60;;;;;;;;;;5031855;28;20832;-66
2022/09/09 07:43:33;;;;;;;10.00;3.63;;;;;;;;;;5040953;28;20867;-64
2022/09/09 07:46:01;;;;;;;9.63;3.27;;;17.80;99.90;;;;;;5054961;28;20839;-69
2022/09/09 07:48:27;;;;;;;16.57;4.37;;;17.90;99.90;;;;;;5063432;28;20819;-64
2022/09/09 07:51:05;;;;;;;14.60;2.73;;;17.80;99.90;;;;;;5065985;28;20480;-64
2022/09/09 07:53:34;;;;;;;11.60;4.50;;;;;;;;;;5037375;28;20479;-62
2022/09/09 07:56:04;;;;;;;14.60;3.10;;;;;;;;;;5046960;28;20483;-70
2022/09/09 07:58:31;;;;;;;11.20;4.30;;;;;;;;;;5052064;28;20483;-73
2022/09/09 08:00:58;;;;;;;14.90;2.87;;;;;;;;;;5047804;28;20484;-68
2022/09/09 08:03:25;;;;;;;9.87;3.47;;;17.90;99.90;;;;;;5032656;28;20484;-65
2022/09/09 08:05:51;;;;;;;15.17;2.60;;;18.00;99.90;;;;;;5026979;28;20515;-64
2022/09/09 08:08:19;;;;;;;15.33;3.80;;;18.00;99.90;;;;;;5053350;28;20471;-69
2022/09/09 08:10:47;;;;;;;6.50;2.13;;;;;;;;;;5052833;28;21275;-69
2022/09/09 08:13:14;;;;;;;10.97;2.80;;;;;;;;;;5046482;28;20484;-62
2022/09/09 08:15:41;;;;;;;9.77;2.70;;;18.10;99.90;;;;;;5050714;28;20491;-64
2022/09/09 08:18:08;;;;;;;17.40;3.37;;;18.10;99.90;;;;;;5040302;28;20571;-64
2022/09/09 08:20:37;;;;;;;8.40;2.60;;;;;;;;;;5032708;28;20790;-65
2022/09/09 08:23:04;;;;;;;14.93;2.47;;;;;;;;;;5034948;28;20942;-68
2022/09/09 08:25:31;;;;;;;6.97;3.50;;;;;;;;;;5028378;28;20476;-64
2022/09/09 08:27:59;;;;;;;12.00;3.00;;;18.30;99.90;;;;;;5034165;28;20736;-68
2022/09/09 08:30:26;;;;;;;8.30;3.67;;;18.30;99.90;;;;;;5033888;28;20484;-70
2022/09/09 08:32:53;;;;;;;32.43;4.03;;;18.50;99.90;;;;;;5034345;28;20499;-66
2022/09/09 08:35:20;;;;;;;7.90;2.43;;;18.60;99.90;;;;;;5031245;28;20487;-70
2022/09/09 08:37:47;;;;;;;10.57;2.77;;;18.70;99.90;;;;;;5038198;28;20717;-62
2022/09/09 08:40:33;;;;;;;9.57;2.83;;;18.70;99.90;;;;;;5037046;28;21149;-66
2022/09/09 08:43:04;;;;;;;23.97;3.40;;;18.80;99.90;;;;;;5036128;28;20632;-63
2022/09/09 08:45:38;;;;;;;10.37;3.70;;;18.90;99.90;;;;;;5032190;28;20915;-74
2022/09/09 08:48:20;;;;;;;6.17;2.50;;;18.90;99.90;;;;;;5035719;28;20479;-63
2022/09/09 08:50:51;;;;;;;42.97;3.80;;;19.00;99.90;;;;;;5036105;28;20899;-71
2022/09/09 08:53:21;;;;;;;12.53;3.70;;;;;;;;;;5028601;28;21280;-64
2022/09/09 08:55:51;;;;;;;8.53;2.10;;;19.30;99.90;;;;;;5036706;28;20488;-64
2022/09/09 08:58:21;;;;;;;27.70;3.47;;;19.10;99.20;;;;;;5033232;28;20495;-65
2022/09/09 09:01:13;;;;;;;4.53;2.03;;;19.10;99.20;;;;;;5029584;28;20472;-62
2022/09/09 09:03:44;;;;;;;19.10;3.27;;;;;;;;;;5027298;28;20485;-63
2022/09/09 09:06:27;;;;;;;6.90;2.30;;;19.20;99.00;;;;;;5033635;28;20487;-67
2022/09/09 09:09:01;;;;;;;18.47;3.10;;;19.30;98.90;;;;;;5029939;28;20900;-66
2022/09/09 09:11:34;;;;;;;6.10;2.67;;;19.30;99.10;;;;;;5031875;28;20483;-66
2022/09/09 09:14:04;;;;;;;25.43;3.37;;;;;;;;;;5031701;28;20491;-67
2022/09/09 09:16:35;;;;;;;8.17;2.87;;;;;;;;;;5032425;28;20493;-64
2022/09/09 09:19:02;;;;;;;12.27;3.17;;;;;;;;;;5028569;28;20957;-68
2022/09/09 09:21:40;;;;;;;10.40;3.40;;;19.30;99.10;;;;;;5022545;28;21834;-72
2022/09/09 09:24:11;;;;;;;7.90;2.03;;;;;;;;;;5029865;28;20480;-66
2022/09/09 09:26:38;;;;;;;21.37;3.20;;;19.30;98.60;;;;;;5019758;28;20941;-65
2022/09/09 09:29:12;;;;;;;7.43;2.20;;;;;;;;;;5031349;28;21008;-70
2022/09/09 09:31:39;;;;;;;7.30;2.00;;;;;;;;;;5032541;28;20567;-60
2022/09/09 09:34:05;;;;;;;11.43;2.30;;;19.20;98.10;;;;;;5027528;28;20491;-68
2022/09/09 09:36:39;;;;;;;10.80;3.90;;;19.30;98.30;;;;;;5036361;28;20495;-62
2022/09/09 09:39:06;;;;;;;12.20;2.77;;;19.30;98.90;;;;;;5031291;28;21033;-70
2022/09/09 09:41:36;;;;;;;13.83;3.30;;;19.40;98.40;;;;;;5031913;28;20488;-64
2022/09/09 09:44:04;;;;;;;8.60;2.27;;;19.60;98.50;;;;;;5027232;28;20996;-65
2022/09/09 09:46:33;;;;;;;29.63;4.20;;;19.50;97.70;;;;;;5033280;28;21029;-69
2022/09/09 09:49:01;;;;;;;5.70;3.03;;;19.30;98.00;;;;;;5034476;28;20507;-63
2022/09/09 09:51:30;;;;;;;18.10;3.33;;;19.20;98.20;;;;;;5031916;28;20493;-69
2022/09/09 09:54:05;;;;;;;25.43;3.03;;;;;;;;;;5035352;28;20553;-66
2022/09/09 09:56:32;;;;;;;8.67;2.83;;;19.10;98.80;;;;;;5020743;28;20481;-68
2022/09/09 09:58:59;;;;;;;27.73;4.73;;;19.00;99.20;;;;;;5028933;28;20522;-61
2022/09/09 10:01:29;;;;;;;19.70;3.00;;;19.00;99.50;;;;;;5030983;28;21035;-67
2022/09/09 10:04:01;;;;;;;9.13;3.30;;;19.00;99.90;;;;;;5031827;28;21030;-66
2022/09/09 10:06:32;;;;;;;17.73;3.00;;;19.10;99.90;;;;;;5032572;28;20515;-64
2022/09/09 10:09:01;;;;;;;12.70;2.80;;;18.90;99.90;;;;;;5036826;28;20480;-69
2022/09/09 10:11:32;;;;;;;24.23;5.00;;;;;;;;;;5036807;28;21182;-65
2022/09/09 10:14:09;;;;;;;11.03;2.63;;;18.80;99.90;;;;;;5027646;28;20488;-65
2022/09/09 10:16:41;;;;;;;9.43;1.77;;;;;;;;;;5035174;28;20486;-68
2022/09/09 10:19:15;;;;;;;11.63;1.60;;;18.00;98.40;;;;;;5025917;28;20483;-72
2022/09/09 10:22:06;;;;;;;10.30;1.47;;;17.70;98.70;;;;;;5036824;28;20492;-69
2022/09/09 10:25:03;;;;;;;17.40;3.90;;;17.30;99.90;;;;;;5027050;28;20480;-64
2022/09/09 10:27:37;;;;;;;15.10;3.03;;;17.20;99.90;;;;;;5028785;28;20811;-66
2022/09/09 10:30:11;;;;;;;8.77;2.60;;;;;;;;;;5031463;28;20717;-65
2022/09/09 10:32:46;;;;;;;35.73;4.20;;;17.40;99.90;;;;;;5031612;28;20487;-70
2022/09/09 10:35:28;;;;;;;5.90;1.83;;;17.70;99.90;;;;;;5032503;28;21010;-65
2022/09/09 10:38:14;;;;;;;12.17;1.63;;;18.00;99.90;;;;;;5023884;28;21396;-69
2022/09/09 10:40:45;;;;;;;7.70;2.10;;;;;;;;;;5018044;28;21151;-67
2022/09/09 10:43:17;;;;;;;16.70;1.90;;;;;;;;;;5030515;28;20585;-65
2022/09/09 10:45:55;;;;;;;10.10;1.63;;;19.00;99.90;;;;;;5035292;28;20488;-66
2022/09/09 10:48:32;;;;;;;9.10;2.10;;;19.10;99.90;;;;;;5030809;28;20877;-65
2022/09/09 10:51:07;;;;;;;8.10;1.90;;;;;;;;;;5023203;28;20486;-68
2022/09/09 10:53:46;;;;;;;4.90;2.67;;;19.40;99.90;;;;;;5026004;28;20479;-69
2022/09/09 10:56:16;;;;;;;6.93;2.10;;;19.50;99.90;;;;;;5035393;28;20499;-65
2022/09/09 10:58:48;;;;;;;10.00;2.43;;;19.50;99.90;;;;;;5030240;28;20487;-68
2022/09/09 11:01:21;;;;;;;9.50;2.23;;;19.60;99.90;;;;;;5040031;28;21184;-67
2022/09/09 11:03:55;;;;;;;15.90;2.60;;;19.60;99.90;;;;;;5034732;28;20494;-68
2022/09/09 11:06:27;;;;;;;15.37;2.70;;;;;;;;;;5037114;28;20710;-68
2022/09/09 11:08:55;;;;;;;20.13;4.70;;;20.10;99.90;;;;;;5038862;28;20869;-68
2022/09/09 11:11:28;;;;;;;14.17;3.10;;;20.30;99.90;;;;;;5036196;28;20634;-65
2022/09/09 11:13:57;;;;;;;13.30;2.70;;;;;;;;;;5036220;28;20480;-64
2022/09/09 11:16:27;;;;;;;8.43;2.00;;;;;;;;;;5014912;28;20499;-67
2022/09/09 11:18:57;;;;;;;18.13;2.00;;;;;;;;;;5035669;28;20475;-65
2022/09/09 11:21:29;;;;;;;8.40;2.33;;;20.10;97.30;;;;;;5042420;28;20546;-69
2022/09/09 11:23:59;;;;;;;8.30;2.30;;;;;;;;;;5054147;28;20914;-70
2022/09/09 11:26:31;;;;;;;4.43;2.80;;;;;;;;;;5043906;28;20468;-64
2022/09/09 11:29:18;;;;;;;12.37;2.57;;;20.10;98.70;;;;;;5064227;28;20475;-64
2022/09/09 11:31:52;;;;;;;5.10;1.80;;;20.40;96.90;;;;;;5035007;28;20499;-66
2022/09/09 11:34:49;;;;;;;5.70;1.70;;;20.30;95.20;;;;;;5061998;28;20482;-64
2022/09/09 11:37:36;;;;;;;4.53;1.57;;;20.40;95.50;;;;;;5060506;28;20480;-68
2022/09/09 11:40:17;;;;;;;12.30;2.07;;;20.80;97.40;;;;;;5047408;28;20465;-69
2022/09/09 11:42:44;;;;;;;3.70;1.90;;;20.60;95.30;;;;;;5025128;28;20780;-69
2022/09/09 11:45:20;;;;;;;16.43;3.00;;;20.60;95.00;;;;;;5034239;28;20732;-64
2022/09/09 11:47:53;;;;;;;6.20;2.17;;;20.80;94.90;;;;;;5038920;28;20488;-67
2022/09/09 11:50:34;;;;;;;29.20;2.97;;;20.60;94.50;;;;;;5053130;28;20579;-68
2022/09/09 11:53:22;;;;;;;11.67;2.30;;;20.60;95.60;;;;;;5055544;28;20542;-66
2022/09/09 11:56:00;;;;;;;4.20;1.57;;;20.50;94.30;;;;;;5043386;28;20510;-64
2022/09/09 11:58:27;;;;;;;11.50;2.70;;;;;;;;;;5038872;28;21044;-69
2022/09/09 12:00:54;;;;;;;16.40;2.30;;;20.80;95.50;;;;;;5047094;28;20834;-71
2022/09/09 12:03:46;;;;;;;4.50;1.77;;;21.00;94.70;;;;;;5050793;28;20482;-71
2022/09/09 12:06:18;;;;;;;10.77;1.93;;;21.30;94.70;;;;;;5021235;28;20475;-66
2022/09/09 12:08:49;;;;;;;5.43;1.87;;;21.10;93.10;;;;;;5053777;28;20948;-66
2022/09/09 12:11:26;;;;;;;11.47;2.17;;;21.30;93.60;;;;;;5052162;28;20994;-66
2022/09/09 12:13:57;;;;;;;4.00;1.70;;;21.30;93.00;;;;;;5051641;28;20485;-70
2022/09/09 12:16:34;;;;;;;6.57;1.50;;;21.30;93.40;;;;;;5048520;28;20476;-66
2022/09/09 12:19:06;;;;;;;5.20;1.57;;;21.50;94.20;;;;;;5054645;28;21598;-71
2022/09/09 12:21:40;;;;;;;6.03;1.90;;;21.40;92.20;;;;;;5054127;28;20480;-64
2022/09/09 12:24:11;;;;;;;16.43;1.87;;;21.70;93.00;;;;;;5044768;28;20472;-70
2022/09/09 12:26:42;;;;;;;2.70;1.37;;;21.40;92.10;;;;;;5040506;28;20499;-67
2022/09/09 12:29:18;;;;;;;7.87;1.47;;;;;;;;;;5045512;28;20750;-61
2022/09/09 12:31:48;;;;;;;8.23;1.70;;;;;;;;;;5044091;28;20475;-67
2022/09/09 12:34:17;;;;;;;10.53;2.20;;;21.10;92.90;;;;;;5041940;28;20492;-60
2022/09/09 12:36:46;;;;;;;15.93;2.37;;;21.20;94.10;;;;;;5055345;28;20506;-68
2022/09/09 12:39:21;;;;;;;12.40;1.90;;;21.30;94.10;;;;;;5053832;28;20552;-66
2022/09/09 12:41:57;;;;;;;11.13;1.80;;;21.30;93.40;;;;;;5050123;28;20554;-67
2022/09/09 12:44:24;;;;;;;20.47;3.30;;;21.40;93.80;;;;;;5035305;28;20479;-71
2022/09/09 12:46:54;;;;;;;5.00;2.00;;;21.30;93.10;;;;;;5056991;28;20490;-67
2022/09/09 12:49:27;;;;;;;24.60;2.57;;;;;;;;;;5043397;28;20869;-65
2022/09/09 12:51:57;;;;;;;5.33;1.90;;;21.00;93.10;;;;;;5065443;28;20496;-67
2022/09/09 12:54:25;;;;;;;18.73;2.80;;;21.00;94.30;;;;;;5049844;28;20797;-63
2022/09/09 12:56:52;;;;;;;5.00;1.30;;;20.70;94.20;;;;;;5042272;28;20479;-66
2022/09/09 12:59:24;;;;;;;6.80;1.90;;;20.40;94.30;;;;;;5054461;28;21007;-66
2022/09/09 13:01:57;;;;;;;12.70;1.50;;;20.30;93.90;;;;;;5042535;28;20899;-65
2022/09/09 13:04:23;;;;;;;7.83;1.70;;;20.20;94.50;;;;;;5013600;28;20454;-63
2022/09/09 13:06:52;;;;;;;9.33;1.63;;;20.20;95.70;;;;;;5030592;28;20836;-67
2022/09/09 13:09:19;;;;;;;6.20;1.63;;;20.20;95.70;;;;;;5037838;28;20488;-67
2022/09/09 13:11:51;;;;;;;4.90;1.30;;;20.10;96.10;;;;;;5033573;28;20860;-70
2022/09/09 13:14:20;;;;;;;18.63;2.57;;;20.10;95.60;;;;;;5035506;28;20962;-65
2022/09/09 13:16:58;;;;;;;8.13;1.47;;;20.10;96.20;;;;;;5035927;28;20470;-66
2022/09/09 13:19:27;;;;;;;8.83;2.40;;;20.10;96.30;;;;;;5038490;28;20526;-69
2022/09/09 13:21:54;;;;;;;7.20;1.63;;;20.10;96.60;;;;;;5045806;28;20767;-64
2022/09/09 13:24:31;;;;;;;3.97;1.90;;;20.10;97.10;;;;;;5028210;28;20497;-68
2022/09/09 13:27:02;;;;;;;9.67;1.80;;;20.20;96.90;;;;;;5036447;28;20479;-62
2022/09/09 13:29:29;;;;;;;4.57;2.70;;;20.10;97.40;;;;;;5042879;28;20555;-70